sensor_id;sensor_type;location;lat;lon;timestamp;pressure;altitude;pressure_sealevel;temperature;humidity
39487;BME280;25173;50.430;18.926;2023-03-14T00:00:56;96753.72;;;12.63;48.79
39487;BME280;25173;50.430;18.926;2023-03-14T00:03:56;96746.97;;;12.60;48.89
39487;BME280;25173;50.430;18.926;2023-03-14T00:06:57;96732.69;;;12.55;49.01
39487;BME280;25173;50.430;18.926;2023-03-14T00:09:58;96718.22;;;12.54;49.40
39487;BME280;25173;50.430;18.926;2023-03-14T00:12:58;96708.41;;;12.53;49.00
39487;BME280;25173;50.430;18.926;2023-03-14T00:16:07;96699.91;;;12.55;49.18
39487;BME280;25173;50.430;18.926;2023-03-14T00:19:07;96682.41;;;12.56;49.27
39487;BME280;25173;50.430;18.926;2023-03-14T00:22:08;96669.56;;;12.56;49.42
39487;BME280;25173;50.430;18.926;2023-03-14T00:25:10;96661.50;;;12.60;49.42
39487;BME280;25173;50.430;18.926;2023-03-14T00:28:11;96668.25;;;12.62;49.40
39487;BME280;25173;50.430;18.926;2023-03-14T00:31:15;96660.22;;;12.66;49.33
39487;BME280;25173;50.430;18.926;2023-03-14T00:34:16;96662.16;;;12.74;49.38
39487;BME280;25173;50.430;18.926;2023-03-14T00:37:16;96648.31;;;12.79;49.27
39487;BME280;25173;50.430;18.926;2023-03-14T00:40:43;96632.41;;;12.81;49.25
39487;BME280;25173;50.430;18.926;2023-03-14T00:43:44;96619.88;;;12.80;49.35
39487;BME280;25173;50.430;18.926;2023-03-14T00:46:45;96616.97;;;12.76;49.29
39487;BME280;25173;50.430;18.926;2023-03-14T00:49:45;96619.38;;;12.78;49.30
39487;BME280;25173;50.430;18.926;2023-03-14T00:52:47;96613.91;;;12.78;49.28
39487;BME280;25173;50.430;18.926;2023-03-14T00:55:49;96609.91;;;12.75;49.33
39487;BME280;25173;50.430;18.926;2023-03-14T00:58:53;96594.31;;;12.76;49.37
39487;BME280;25173;50.430;18.926;2023-03-14T01:01:54;96588.03;;;12.75;49.44
39487;BME280;25173;50.430;18.926;2023-03-14T01:04:54;96586.47;;;12.74;49.42
39487;BME280;25173;50.430;18.926;2023-03-14T01:07:56;96582.13;;;12.73;49.53
39487;BME280;25173;50.430;18.926;2023-03-14T01:10:56;96586.31;;;12.71;49.66
39487;BME280;25173;50.430;18.926;2023-03-14T01:13:58;96578.91;;;12.71;49.66
39487;BME280;25173;50.430;18.926;2023-03-14T01:17:02;96556.44;;;12.66;49.70
39487;BME280;25173;50.430;18.926;2023-03-14T01:20:04;96546.47;;;12.61;49.96
39487;BME280;25173;50.430;18.926;2023-03-14T01:23:09;96554.88;;;12.56;50.06
39487;BME280;25173;50.430;18.926;2023-03-14T01:26:11;96542.00;;;12.57;50.25
39487;BME280;25173;50.430;18.926;2023-03-14T01:29:13;96543.28;;;12.59;50.24
39487;BME280;25173;50.430;18.926;2023-03-14T01:32:14;96540.22;;;12.61;50.34
39487;BME280;25173;50.430;18.926;2023-03-14T01:35:14;96539.25;;;12.65;50.14
39487;BME280;25173;50.430;18.926;2023-03-14T01:38:15;96536.84;;;12.64;50.10
39487;BME280;25173;50.430;18.926;2023-03-14T01:41:19;96526.41;;;12.66;50.12
39487;BME280;25173;50.430;18.926;2023-03-14T01:44:21;96514.00;;;12.68;50.06
39487;BME280;25173;50.430;18.926;2023-03-14T01:47:22;96522.34;;;12.72;49.99
39487;BME280;25173;50.430;18.926;2023-03-14T01:50:23;96514.13;;;12.80;49.96
39487;BME280;25173;50.430;18.926;2023-03-14T01:53:24;96509.75;;;12.88;49.92
39487;BME280;25173;50.430;18.926;2023-03-14T01:56:26;96508.75;;;12.93;49.79
39487;BME280;25173;50.430;18.926;2023-03-14T01:59:27;96493.31;;;12.97;49.77
39487;BME280;25173;50.430;18.926;2023-03-14T02:02:30;96510.97;;;12.99;49.50
39487;BME280;25173;50.430;18.926;2023-03-14T02:05:35;96508.84;;;13.05;49.31
39487;BME280;25173;50.430;18.926;2023-03-14T02:08:45;96503.53;;;13.08;49.36
39487;BME280;25173;50.430;18.926;2023-03-14T02:11:51;96520.56;;;13.14;49.21
39487;BME280;25173;50.430;18.926;2023-03-14T02:15:12;96520.72;;;13.17;49.14
39487;BME280;25173;50.430;18.926;2023-03-14T02:18:42;96507.16;;;13.21;49.13
39487;BME280;25173;50.430;18.926;2023-03-14T02:22:08;96480.09;;;13.28;49.04
39487;BME280;25173;50.430;18.926;2023-03-14T02:25:26;96481.06;;;13.32;48.84
39487;BME280;25173;50.430;18.926;2023-03-14T02:28:31;96477.53;;;13.32;48.82
39487;BME280;25173;50.430;18.926;2023-03-14T02:31:34;96470.13;;;13.32;48.76
39487;BME280;25173;50.430;18.926;2023-03-14T02:34:35;96472.84;;;13.32;48.75
39487;BME280;25173;50.430;18.926;2023-03-14T02:40:41;96482.25;;;13.23;48.66
39487;BME280;25173;50.430;18.926;2023-03-14T02:43:42;96485.31;;;13.21;48.76
39487;BME280;25173;50.430;18.926;2023-03-14T02:46:45;96486.09;;;13.21;48.85
39487;BME280;25173;50.430;18.926;2023-03-14T02:49:47;96474.03;;;13.23;48.70
39487;BME280;25173;50.430;18.926;2023-03-14T02:52:48;96473.88;;;13.19;48.67
39487;BME280;25173;50.430;18.926;2023-03-14T02:55:49;96478.91;;;13.17;48.70
39487;BME280;25173;50.430;18.926;2023-03-14T02:58:52;96486.31;;;13.16;48.68
39487;BME280;25173;50.430;18.926;2023-03-14T03:02:00;96489.84;;;13.17;48.74
39487;BME280;25173;50.430;18.926;2023-03-14T03:05:01;96496.22;;;13.21;48.58
39487;BME280;25173;50.430;18.926;2023-03-14T03:08:02;96500.56;;;13.22;48.50
39487;BME280;25173;50.430;18.926;2023-03-14T03:11:04;96499.78;;;13.21;48.41
39487;BME280;25173;50.430;18.926;2023-03-14T03:14:07;96509.56;;;13.23;48.40
39487;BME280;25173;50.430;18.926;2023-03-14T03:17:08;96511.84;;;13.20;48.68
39487;BME280;25173;50.430;18.926;2023-03-14T03:20:09;96536.31;;;13.17;48.77
39487;BME280;25173;50.430;18.926;2023-03-14T03:23:10;96556.72;;;13.11;48.80
39487;BME280;25173;50.430;18.926;2023-03-14T03:26:12;96566.41;;;13.00;48.83
39487;BME280;25173;50.430;18.926;2023-03-14T03:29:13;96575.94;;;12.94;48.91
39487;BME280;25173;50.430;18.926;2023-03-14T03:32:13;96595.72;;;12.91;48.96
39487;BME280;25173;50.430;18.926;2023-03-14T03:35:14;96596.81;;;12.90;48.97
39487;BME280;25173;50.430;18.926;2023-03-14T03:38:16;96588.19;;;12.88;49.21
39487;BME280;25173;50.430;18.926;2023-03-14T03:41:18;96592.97;;;12.91;49.23
39487;BME280;25173;50.430;18.926;2023-03-14T03:44:20;96567.75;;;12.94;49.18
39487;BME280;25173;50.430;18.926;2023-03-14T03:47:21;96556.16;;;12.97;49.11
39487;BME280;25173;50.430;18.926;2023-03-14T03:50:21;96576.53;;;12.99;49.15
39487;BME280;25173;50.430;18.926;2023-03-14T03:53:22;96561.75;;;13.00;49.19
39487;BME280;25173;50.430;18.926;2023-03-14T03:56:23;96561.13;;;13.03;49.17
39487;BME280;25173;50.430;18.926;2023-03-14T03:59:24;96553.38;;;13.05;49.12
39487;BME280;25173;50.430;18.926;2023-03-14T04:02:25;96545.81;;;13.11;49.04
39487;BME280;25173;50.430;18.926;2023-03-14T04:05:26;96547.38;;;13.12;49.15
39487;BME280;25173;50.430;18.926;2023-03-14T04:08:32;96534.59;;;13.04;49.19
39487;BME280;25173;50.430;18.926;2023-03-14T04:11:34;96529.50;;;12.94;49.32
39487;BME280;25173;50.430;18.926;2023-03-14T04:14:46;96536.44;;;12.82;49.39
39487;BME280;25173;50.430;18.926;2023-03-14T04:17:56;96518.63;;;12.76;49.53
39487;BME280;25173;50.430;18.926;2023-03-14T04:20:57;96517.84;;;12.67;49.60
39487;BME280;25173;50.430;18.926;2023-03-14T04:24:06;96506.84;;;12.55;49.92
39487;BME280;25173;50.430;18.926;2023-03-14T04:27:12;96497.88;;;12.46;50.15
39487;BME280;25173;50.430;18.926;2023-03-14T04:30:23;96516.19;;;12.45;50.29
39487;BME280;25173;50.430;18.926;2023-03-14T04:33:30;96499.00;;;12.45;50.34
39487;BME280;25173;50.430;18.926;2023-03-14T04:36:31;96505.75;;;12.39;50.31
39487;BME280;25173;50.430;18.926;2023-03-14T04:39:37;96504.50;;;12.36;50.64
39487;BME280;25173;50.430;18.926;2023-03-14T04:42:45;96493.13;;;12.26;50.56
39487;BME280;25173;50.430;18.926;2023-03-14T04:45:46;96478.56;;;12.13;50.75
39487;BME280;25173;50.430;18.926;2023-03-14T04:48:47;96467.03;;;11.99;51.01
39487;BME280;25173;50.430;18.926;2023-03-14T04:51:49;96459.81;;;11.94;51.37
39487;BME280;25173;50.430;18.926;2023-03-14T04:54:52;96456.63;;;11.92;51.39
39487;BME280;25173;50.430;18.926;2023-03-14T04:57:54;96459.66;;;11.91;51.42
39487;BME280;25173;50.430;18.926;2023-03-14T05:01:02;96459.50;;;11.87;51.46
39487;BME280;25173;50.430;18.926;2023-03-14T05:04:33;96459.69;;;11.82;51.56
39487;BME280;25173;50.430;18.926;2023-03-14T05:07:50;96460.97;;;11.76;51.66
39487;BME280;25173;50.430;18.926;2023-03-14T05:11:00;96464.16;;;11.70;51.76
39487;BME280;25173;50.430;18.926;2023-03-14T05:14:21;96461.44;;;11.61;51.91
39487;BME280;25173;50.430;18.926;2023-03-14T05:17:36;96445.09;;;11.52;52.10
39487;BME280;25173;50.430;18.926;2023-03-14T05:21:06;96441.72;;;11.47;52.27
39487;BME280;25173;50.430;18.926;2023-03-14T05:24:41;96434.50;;;11.42;52.44
39487;BME280;25173;50.430;18.926;2023-03-14T05:27:55;96432.28;;;11.36;52.67
39487;BME280;25173;50.430;18.926;2023-03-14T05:31:19;96433.88;;;11.37;52.65
39487;BME280;25173;50.430;18.926;2023-03-14T05:34:26;96433.56;;;11.47;52.72
39487;BME280;25173;50.430;18.926;2023-03-14T05:37:48;96439.31;;;11.54;52.60
39487;BME280;25173;50.430;18.926;2023-03-14T05:40:58;96422.66;;;11.55;52.79
39487;BME280;25173;50.430;18.926;2023-03-14T05:44:17;96430.34;;;11.62;52.72
39487;BME280;25173;50.430;18.926;2023-03-14T05:47:37;96425.81;;;11.66;52.65
39487;BME280;25173;50.430;18.926;2023-03-14T05:50:57;96417.47;;;11.71;52.83
39487;BME280;25173;50.430;18.926;2023-03-14T05:54:18;96412.22;;;11.75;52.83
39487;BME280;25173;50.430;18.926;2023-03-14T05:57:28;96401.13;;;11.80;52.86
39487;BME280;25173;50.430;18.926;2023-03-14T06:00:49;96403.22;;;11.83;52.81
39487;BME280;25173;50.430;18.926;2023-03-14T06:04:06;96387.47;;;11.88;52.79
39487;BME280;25173;50.430;18.926;2023-03-14T06:07:07;96390.50;;;11.95;52.60
39487;BME280;25173;50.430;18.926;2023-03-14T06:10:09;96382.44;;;12.08;52.22
39487;BME280;25173;50.430;18.926;2023-03-14T06:13:10;96386.56;;;12.22;51.92
39487;BME280;25173;50.430;18.926;2023-03-14T06:16:11;96389.06;;;12.36;51.76
39487;BME280;25173;50.430;18.926;2023-03-14T06:19:13;96379.81;;;12.49;51.56
39487;BME280;25173;50.430;18.926;2023-03-14T06:22:16;96386.75;;;12.67;51.32
39487;BME280;25173;50.430;18.926;2023-03-14T06:25:17;96378.47;;;12.84;51.07
39487;BME280;25173;50.430;18.926;2023-03-14T06:28:20;96379.00;;;12.99;50.75
39487;BME280;25173;50.430;18.926;2023-03-14T06:31:21;96366.22;;;13.11;50.51
39487;BME280;25173;50.430;18.926;2023-03-14T06:34:33;96347.28;;;13.27;50.29
39487;BME280;25173;50.430;18.926;2023-03-14T06:37:34;96346.31;;;13.44;50.25
39487;BME280;25173;50.430;18.926;2023-03-14T06:40:34;96345.34;;;13.60;49.97
39487;BME280;25173;50.430;18.926;2023-03-14T06:43:52;96330.69;;;13.77;49.70
39487;BME280;25173;50.430;18.926;2023-03-14T06:46:54;96339.06;;;14.05;49.46
39487;BME280;25173;50.430;18.926;2023-03-14T06:49:55;96341.09;;;14.32;49.38
39487;BME280;25173;50.430;18.926;2023-03-14T06:52:56;96350.94;;;14.58;48.90
39487;BME280;25173;50.430;18.926;2023-03-14T06:56:00;96336.44;;;14.69;48.72
39487;BME280;25173;50.430;18.926;2023-03-14T06:59:02;96344.06;;;14.88;48.61
39487;BME280;25173;50.430;18.926;2023-03-14T07:02:10;96337.03;;;15.03;47.91
39487;BME280;25173;50.430;18.926;2023-03-14T07:05:13;96334.94;;;15.12;47.62
39487;BME280;25173;50.430;18.926;2023-03-14T07:08:13;96352.75;;;15.18;47.61
39487;BME280;25173;50.430;18.926;2023-03-14T07:11:14;96349.50;;;15.28;47.50
39487;BME280;25173;50.430;18.926;2023-03-14T07:14:15;96359.44;;;15.33;46.95
39487;BME280;25173;50.430;18.926;2023-03-14T07:17:16;96361.19;;;15.25;46.91
39487;BME280;25173;50.430;18.926;2023-03-14T07:20:17;96371.78;;;15.27;47.02
39487;BME280;25173;50.430;18.926;2023-03-14T07:23:17;96367.22;;;15.31;46.80
39487;BME280;25173;50.430;18.926;2023-03-14T07:26:22;96368.56;;;15.37;46.62
39487;BME280;25173;50.430;18.926;2023-03-14T07:29:25;96369.63;;;15.32;46.50
39487;BME280;25173;50.430;18.926;2023-03-14T07:32:26;96379.47;;;15.33;46.43
39487;BME280;25173;50.430;18.926;2023-03-14T07:35:27;96394.06;;;15.37;46.41
39487;BME280;25173;50.430;18.926;2023-03-14T07:38:28;96382.41;;;15.40;46.27
39487;BME280;25173;50.430;18.926;2023-03-14T07:41:47;96377.78;;;15.44;46.33
39487;BME280;25173;50.430;18.926;2023-03-14T07:45:08;96383.28;;;15.44;45.85
39487;BME280;25173;50.430;18.926;2023-03-14T07:48:09;96396.66;;;15.46;45.82
39487;BME280;25173;50.430;18.926;2023-03-14T07:51:10;96396.66;;;15.46;45.85
39487;BME280;25173;50.430;18.926;2023-03-14T07:54:11;96393.66;;;15.51;46.03
39487;BME280;25173;50.430;18.926;2023-03-14T07:57:11;96384.16;;;15.61;45.93
39487;BME280;25173;50.430;18.926;2023-03-14T08:00:13;96396.59;;;15.70;45.78
39487;BME280;25173;50.430;18.926;2023-03-14T08:03:14;96405.22;;;15.84;45.63
39487;BME280;25173;50.430;18.926;2023-03-14T08:06:15;96398.50;;;15.98;45.58
39487;BME280;25173;50.430;18.926;2023-03-14T08:09:15;96404.88;;;16.02;45.26
39487;BME280;25173;50.430;18.926;2023-03-14T08:12:16;96408.25;;;16.11;45.29
39487;BME280;25173;50.430;18.926;2023-03-14T08:15:17;96418.00;;;16.08;45.34
39487;BME280;25173;50.430;18.926;2023-03-14T08:18:17;96427.75;;;16.06;44.89
39487;BME280;25173;50.430;18.926;2023-03-14T08:21:18;96419.75;;;16.01;44.92
39487;BME280;25173;50.430;18.926;2023-03-14T08:24:18;96418.19;;;16.00;45.23
39487;BME280;25173;50.430;18.926;2023-03-14T08:27:19;96439.22;;;15.96;45.46
39487;BME280;25173;50.430;18.926;2023-03-14T08:30:21;96428.97;;;15.93;45.23
39487;BME280;25173;50.430;18.926;2023-03-14T08:33:26;96419.38;;;15.86;45.39
39487;BME280;25173;50.430;18.926;2023-03-14T08:36:27;96428.25;;;15.96;45.77
39487;BME280;25173;50.430;18.926;2023-03-14T08:39:28;96414.25;;;16.01;45.48
39487;BME280;25173;50.430;18.926;2023-03-14T08:42:28;96407.63;;;16.02;45.51
39487;BME280;25173;50.430;18.926;2023-03-14T08:45:29;96408.25;;;16.11;45.54
39487;BME280;25173;50.430;18.926;2023-03-14T08:48:30;96417.66;;;16.25;45.89
39487;BME280;25173;50.430;18.926;2023-03-14T08:51:31;96426.25;;;16.24;45.03
39487;BME280;25173;50.430;18.926;2023-03-14T08:54:32;96417.31;;;16.11;45.18
39487;BME280;25173;50.430;18.926;2023-03-14T08:57:32;96404.88;;;16.02;45.46
39487;BME280;25173;50.430;18.926;2023-03-14T09:00:33;96417.44;;;15.87;45.42
39487;BME280;25173;50.430;18.926;2023-03-14T09:03:33;96411.19;;;15.74;45.71
39487;BME280;25173;50.430;18.926;2023-03-14T09:06:34;96421.72;;;15.72;45.91
39487;BME280;25173;50.430;18.926;2023-03-14T09:09:36;96415.22;;;15.65;46.18
39487;BME280;25173;50.430;18.926;2023-03-14T09:12:37;96426.81;;;15.58;46.29
39487;BME280;25173;50.430;18.926;2023-03-14T09:15:37;96451.28;;;15.51;46.55
39487;BME280;25173;50.430;18.926;2023-03-14T09:18:39;96444.22;;;15.38;46.73
39487;BME280;25173;50.430;18.926;2023-03-14T09:21:39;96442.63;;;15.37;46.94
39487;BME280;25173;50.430;18.926;2023-03-14T09:24:40;96481.28;;;15.32;46.81
39487;BME280;25173;50.430;18.926;2023-03-14T09:27:41;96457.72;;;15.31;47.03
39487;BME280;25173;50.430;18.926;2023-03-14T09:30:42;96463.47;;;15.26;46.86
39487;BME280;25173;50.430;18.926;2023-03-14T09:33:43;96467.47;;;15.16;47.08
39487;BME280;25173;50.430;18.926;2023-03-14T09:36:45;96463.13;;;15.15;47.17
39487;BME280;25173;50.430;18.926;2023-03-14T09:39:45;96452.16;;;15.15;47.44
39487;BME280;25173;50.430;18.926;2023-03-14T09:42:55;96438.19;;;15.20;47.30
39487;BME280;25173;50.430;18.926;2023-03-14T09:45:57;96429.63;;;15.34;47.34
39487;BME280;25173;50.430;18.926;2023-03-14T09:48:59;96435.75;;;15.55;47.29
39487;BME280;25173;50.430;18.926;2023-03-14T09:52:04;96432.09;;;15.79;46.97
39487;BME280;25173;50.430;18.926;2023-03-14T09:55:11;96452.69;;;16.01;46.79
39487;BME280;25173;50.430;18.926;2023-03-14T09:58:17;96444.69;;;16.08;46.58
39487;BME280;25173;50.430;18.926;2023-03-14T10:01:24;96458.03;;;16.09;46.26
39487;BME280;25173;50.430;18.926;2023-03-14T10:04:25;96456.34;;;16.05;46.41
39487;BME280;25173;50.430;18.926;2023-03-14T10:07:30;96444.75;;;16.11;46.33
39487;BME280;25173;50.430;18.926;2023-03-14T10:10:33;96459.41;;;16.15;46.14
39487;BME280;25173;50.430;18.926;2023-03-14T10:13:33;96463.19;;;16.11;46.30
39487;BME280;25173;50.430;18.926;2023-03-14T10:16:37;96460.56;;;16.14;46.63
39487;BME280;25173;50.430;18.926;2023-03-14T10:20:00;96458.41;;;16.08;45.84
39487;BME280;25173;50.430;18.926;2023-03-14T10:23:18;96468.81;;;16.02;46.45
39487;BME280;25173;50.430;18.926;2023-03-14T10:26:27;96484.56;;;15.89;46.21
39487;BME280;25173;50.430;18.926;2023-03-14T10:29:30;96492.59;;;15.82;46.57
39487;BME280;25173;50.430;18.926;2023-03-14T10:32:38;96484.84;;;15.72;46.56
39487;BME280;25173;50.430;18.926;2023-03-14T10:35:41;96482.94;;;15.61;46.93
39487;BME280;25173;50.430;18.926;2023-03-14T10:38:42;96493.38;;;15.55;47.19
39487;BME280;25173;50.430;18.926;2023-03-14T10:42:12;96508.00;;;15.47;48.15
39487;BME280;25173;50.430;18.926;2023-03-14T10:45:42;96497.72;;;15.32;48.97
39487;BME280;25173;50.430;18.926;2023-03-14T10:48:44;96492.16;;;15.16;49.60
39487;BME280;25173;50.430;18.926;2023-03-14T10:51:46;96468.72;;;15.06;50.44
39487;BME280;25173;50.430;18.926;2023-03-14T10:54:48;96467.63;;;14.95;51.03
39487;BME280;25173;50.430;18.926;2023-03-14T10:57:49;96475.47;;;14.85;51.46
39487;BME280;25173;50.430;18.926;2023-03-14T11:01:55;96469.53;;;14.83;52.61
39487;BME280;25173;50.430;18.926;2023-03-14T11:05:02;96480.63;;;14.74;52.79
39487;BME280;25173;50.430;18.926;2023-03-14T11:08:39;96484.47;;;14.61;53.29
39487;BME280;25173;50.430;18.926;2023-03-14T11:11:45;96484.00;;;14.47;52.81
39487;BME280;25173;50.430;18.926;2023-03-14T11:14:54;96492.00;;;14.40;53.09
39487;BME280;25173;50.430;18.926;2023-03-14T11:27:43;96489.94;;;14.04;56.93
39487;BME280;25173;50.430;18.926;2023-03-14T11:30:54;96484.41;;;13.91;57.02
39487;BME280;25173;50.430;18.926;2023-03-14T11:37:07;96478.69;;;13.64;58.24
39487;BME280;25173;50.430;18.926;2023-03-14T11:40:20;96472.31;;;13.59;59.28
39487;BME280;25173;50.430;18.926;2023-03-14T11:43:42;96482.66;;;13.54;60.86
39487;BME280;25173;50.430;18.926;2023-03-14T11:53:04;96488.78;;;13.51;59.94
39487;BME280;25173;50.430;18.926;2023-03-14T11:56:19;96492.00;;;13.53;60.42
39487;BME280;25173;50.430;18.926;2023-03-14T11:59:27;96486.38;;;13.49;60.34
39487;BME280;25173;50.430;18.926;2023-03-14T12:06:02;96475.66;;;13.44;60.44
39487;BME280;25173;50.430;18.926;2023-03-14T12:09:06;96471.31;;;13.43;60.85
39487;BME280;25173;50.430;18.926;2023-03-14T12:12:12;96463.09;;;13.43;61.01
39487;BME280;25173;50.430;18.926;2023-03-14T12:15:20;96444.44;;;13.45;61.13
39487;BME280;25173;50.430;18.926;2023-03-14T12:18:28;96448.56;;;13.51;61.13
39487;BME280;25173;50.430;18.926;2023-03-14T12:25:12;96463.88;;;13.65;60.74
39487;BME280;25173;50.430;18.926;2023-03-14T12:28:22;96474.38;;;13.63;61.18
39487;BME280;25173;50.430;18.926;2023-03-14T12:34:41;96476.25;;;13.71;60.77
39487;BME280;25173;50.430;18.926;2023-03-14T12:37:46;96466.88;;;13.72;61.03
39487;BME280;25173;50.430;18.926;2023-03-14T12:50:46;96452.34;;;14.25;60.77
39487;BME280;25173;50.430;18.926;2023-03-14T13:00:22;96426.97;;;14.73;59.69
39487;BME280;25173;50.430;18.926;2023-03-14T13:03:27;96419.19;;;14.87;59.16
39487;BME280;25173;50.430;18.926;2023-03-14T13:06:52;96418.28;;;14.95;59.06
39487;BME280;25173;50.430;18.926;2023-03-14T13:10:00;96413.69;;;14.99;59.00
39487;BME280;25173;50.430;18.926;2023-03-14T13:13:24;96425.78;;;14.98;58.70
39487;BME280;25173;50.430;18.926;2023-03-14T13:16:27;96418.50;;;14.90;58.32
39487;BME280;25173;50.430;18.926;2023-03-14T13:19:30;96411.19;;;14.82;58.55
39487;BME280;25173;50.430;18.926;2023-03-14T13:22:33;96416.66;;;14.82;58.32
39487;BME280;25173;50.430;18.926;2023-03-14T13:25:37;96419.09;;;14.71;58.29
39487;BME280;25173;50.430;18.926;2023-03-14T13:28:37;96416.13;;;14.64;58.34
39487;BME280;25173;50.430;18.926;2023-03-14T13:31:43;96418.16;;;14.67;58.33
39487;BME280;25173;50.430;18.926;2023-03-14T13:34:45;96427.88;;;14.65;58.29
39487;BME280;25173;50.430;18.926;2023-03-14T13:37:55;96427.66;;;14.58;58.29
39487;BME280;25173;50.430;18.926;2023-03-14T13:40:59;96421.81;;;14.47;58.63
39487;BME280;25173;50.430;18.926;2023-03-14T13:44:06;96429.56;;;14.45;58.82
39487;BME280;25173;50.430;18.926;2023-03-14T13:47:17;96450.72;;;14.45;59.10
39487;BME280;25173;50.430;18.926;2023-03-14T13:50:18;96458.00;;;14.41;59.24
39487;BME280;25173;50.430;18.926;2023-03-14T13:53:19;96462.88;;;14.35;59.51
39487;BME280;25173;50.430;18.926;2023-03-14T13:56:27;96453.59;;;14.27;60.09
39487;BME280;25173;50.430;18.926;2023-03-14T13:59:31;96460.09;;;14.23;60.32
39487;BME280;25173;50.430;18.926;2023-03-14T14:02:34;96452.56;;;14.20;60.46
39487;BME280;25173;50.430;18.926;2023-03-14T14:05:36;96453.38;;;14.20;60.46
39487;BME280;25173;50.430;18.926;2023-03-14T14:08:41;96435.66;;;14.18;60.83
39487;BME280;25173;50.430;18.926;2023-03-14T14:18:04;96434.75;;;14.14;60.68
39487;BME280;25173;50.430;18.926;2023-03-14T14:21:06;96433.97;;;14.13;60.65
39487;BME280;25173;50.430;18.926;2023-03-14T14:24:11;96420.28;;;14.13;60.84
39487;BME280;25173;50.430;18.926;2023-03-14T14:27:17;96421.19;;;14.17;62.11
39487;BME280;25173;50.430;18.926;2023-03-14T14:33:20;96416.97;;;14.20;60.68
39487;BME280;25173;50.430;18.926;2023-03-14T14:36:31;96408.19;;;14.14;60.77
39487;BME280;25173;50.430;18.926;2023-03-14T14:39:32;96421.16;;;14.05;61.08
39487;BME280;25173;50.430;18.926;2023-03-14T14:42:33;96422.16;;;14.00;61.07
39487;BME280;25173;50.430;18.926;2023-03-14T14:45:34;96428.34;;;13.97;61.19
39487;BME280;25173;50.430;18.926;2023-03-14T14:48:37;96420.59;;;13.99;61.41
39487;BME280;25173;50.430;18.926;2023-03-14T14:51:42;96424.38;;;14.07;61.44
39487;BME280;25173;50.430;18.926;2023-03-14T14:57:52;96412.31;;;14.20;61.24
39487;BME280;25173;50.430;18.926;2023-03-14T15:00:59;96401.81;;;14.22;61.41
39487;BME280;25173;50.430;18.926;2023-03-14T15:04:09;96399.75;;;14.19;61.21
39487;BME280;25173;50.430;18.926;2023-03-14T15:07:11;96382.53;;;14.19;61.39
39487;BME280;25173;50.430;18.926;2023-03-14T15:10:14;96391.88;;;14.18;61.47
39487;BME280;25173;50.430;18.926;2023-03-14T15:13:14;96377.59;;;14.12;61.55
39487;BME280;25173;50.430;18.926;2023-03-14T15:16:17;96388.56;;;14.12;61.54
39487;BME280;25173;50.430;18.926;2023-03-14T15:19:24;96394.69;;;14.09;61.68
39487;BME280;25173;50.430;18.926;2023-03-14T15:22:26;96399.94;;;14.02;61.59
39487;BME280;25173;50.430;18.926;2023-03-14T15:25:26;96400.50;;;13.95;61.96
39487;BME280;25173;50.430;18.926;2023-03-14T15:28:28;96398.47;;;13.92;61.89
39487;BME280;25173;50.430;18.926;2023-03-14T15:31:29;96388.16;;;13.89;62.04
39487;BME280;25173;50.430;18.926;2023-03-14T15:34:30;96365.47;;;13.89;62.11
39487;BME280;25173;50.430;18.926;2023-03-14T15:37:31;96365.38;;;13.85;62.17
39487;BME280;25173;50.430;18.926;2023-03-14T15:40:31;96366.16;;;13.86;62.33
39487;BME280;25173;50.430;18.926;2023-03-14T15:43:32;96359.53;;;13.87;62.40
39487;BME280;25173;50.430;18.926;2023-03-14T15:46:32;96350.19;;;13.88;62.38
39487;BME280;25173;50.430;18.926;2023-03-14T15:49:33;96345.19;;;13.90;62.43
39487;BME280;25173;50.430;18.926;2023-03-14T15:52:34;96339.81;;;13.81;62.61
39487;BME280;25173;50.430;18.926;2023-03-14T15:55:34;96341.53;;;13.86;62.52
39487;BME280;25173;50.430;18.926;2023-03-14T15:58:35;96354.19;;;13.90;62.39
39487;BME280;25173;50.430;18.926;2023-03-14T16:01:35;96357.03;;;13.82;62.54
39487;BME280;25173;50.430;18.926;2023-03-14T16:04:36;96341.97;;;13.76;62.62
39487;BME280;25173;50.430;18.926;2023-03-14T16:07:37;96361.00;;;13.72;62.73
39487;BME280;25173;50.430;18.926;2023-03-14T16:10:37;96376.50;;;13.68;62.80
39487;BME280;25173;50.430;18.926;2023-03-14T16:13:39;96372.16;;;13.67;62.87
39487;BME280;25173;50.430;18.926;2023-03-14T16:16:39;96386.41;;;13.73;62.78
39487;BME280;25173;50.430;18.926;2023-03-14T16:19:40;96399.91;;;13.78;62.85
39487;BME280;25173;50.430;18.926;2023-03-14T16:22:40;96403.78;;;13.89;62.43
39487;BME280;25173;50.430;18.926;2023-03-14T16:25:44;96401.75;;;13.98;62.40
39487;BME280;25173;50.430;18.926;2023-03-14T16:28:45;96411.56;;;13.99;62.30
39487;BME280;25173;50.430;18.926;2023-03-14T16:31:46;96407.72;;;14.00;62.20
39487;BME280;25173;50.430;18.926;2023-03-14T16:34:47;96401.28;;;13.96;62.25
39487;BME280;25173;50.430;18.926;2023-03-14T16:37:47;96414.41;;;13.90;62.20
39487;BME280;25173;50.430;18.926;2023-03-14T16:43:58;96411.19;;;13.76;62.41
39487;BME280;25173;50.430;18.926;2023-03-14T16:46:58;96419.25;;;13.73;62.61
39487;BME280;25173;50.430;18.926;2023-03-14T16:49:59;96427.00;;;13.71;62.53
39487;BME280;25173;50.430;18.926;2023-03-14T16:53:02;96432.66;;;13.66;62.67
39487;BME280;25173;50.430;18.926;2023-03-14T16:56:02;96411.00;;;13.60;62.54
39487;BME280;25173;50.430;18.926;2023-03-14T16:59:03;96414.63;;;13.52;62.65
39487;BME280;25173;50.430;18.926;2023-03-14T17:02:04;96406.56;;;13.35;63.18
39487;BME280;25173;50.430;18.926;2023-03-14T17:05:04;96397.03;;;13.20;63.35
39487;BME280;25173;50.430;18.926;2023-03-14T17:08:05;96409.00;;;13.07;63.57
39487;BME280;25173;50.430;18.926;2023-03-14T17:11:06;96408.25;;;12.98;63.71